sensor_id;sensor_type;location;lat;lon;timestamp;temperature;humidity
16980;DHT22;42288;52.182;21.156;2023-06-14T00:01:32;13.60;99.90
16980;DHT22;42288;52.182;21.156;2023-06-14T00:04:00;13.60;99.90
16980;DHT22;42288;52.182;21.156;2023-06-14T00:06:28;13.50;99.90
16980;DHT22;42288;52.182;21.156;2023-06-14T00:08:53;13.50;99.90
16980;DHT22;42288;52.182;21.156;2023-06-14T00:11:19;13.50;99.90
16980;DHT22;42288;52.182;21.156;2023-06-14T00:13:45;13.60;99.90
16980;DHT22;42288;52.182;21.156;2023-06-14T00:16:11;13.60;99.90
16980;DHT22;42288;52.182;21.156;2023-06-14T00:18:37;13.60;99.90
16980;DHT22;42288;52.182;21.156;2023-06-14T00:21:04;13.60;99.90
16980;DHT22;42288;52.182;21.156;2023-06-14T00:23:29;13.60;99.90
16980;DHT22;42288;52.182;21.156;2023-06-14T00:25:55;13.60;99.90
16980;DHT22;42288;52.182;21.156;2023-06-14T00:28:21;13.50;99.90
16980;DHT22;42288;52.182;21.156;2023-06-14T00:30:46;13.50;99.90
16980;DHT22;42288;52.182;21.156;2023-06-14T00:33:12;13.60;99.90
16980;DHT22;42288;52.182;21.156;2023-06-14T00:35:38;13.60;99.90
16980;DHT22;42288;52.182;21.156;2023-06-14T00:38:04;13.60;99.90
16980;DHT22;42288;52.182;21.156;2023-06-14T00:40:29;13.60;99.90
16980;DHT22;42288;52.182;21.156;2023-06-14T00:42:55;13.50;99.90
16980;DHT22;42288;52.182;21.156;2023-06-14T00:45:21;13.50;99.90
16980;DHT22;42288;52.182;21.156;2023-06-14T00:47:47;13.50;99.90
16980;DHT22;42288;52.182;21.156;2023-06-14T00:50:16;13.50;99.90
16980;DHT22;42288;52.182;21.156;2023-06-14T00:52:42;13.50;99.90
16980;DHT22;42288;52.182;21.156;2023-06-14T00:55:08;13.50;99.90
16980;DHT22;42288;52.182;21.156;2023-06-14T00:57:34;13.50;99.90
16980;DHT22;42288;52.182;21.156;2023-06-14T01:00:03;13.50;99.90
16980;DHT22;42288;52.182;21.156;2023-06-14T01:02:33;13.50;99.90
16980;DHT22;42288;52.182;21.156;2023-06-14T01:04:59;13.40;99.90
16980;DHT22;42288;52.182;21.156;2023-06-14T01:13:12;13.40;99.90
16980;DHT22;42288;52.182;21.156;2023-06-14T01:15:39;13.50;99.90
16980;DHT22;42288;52.182;21.156;2023-06-14T01:18:06;13.60;99.90
16980;DHT22;42288;52.182;21.156;2023-06-14T01:20:33;13.50;99.90
16980;DHT22;42288;52.182;21.156;2023-06-14T01:23:01;13.50;99.90
16980;DHT22;42288;52.182;21.156;2023-06-14T01:25:27;13.40;99.90
16980;DHT22;42288;52.182;21.156;2023-06-14T01:27:57;13.50;99.90
16980;DHT22;42288;52.182;21.156;2023-06-14T01:30:24;13.40;99.90
16980;DHT22;42288;52.182;21.156;2023-06-14T01:32:52;13.50;99.90
16980;DHT22;42288;52.182;21.156;2023-06-14T01:35:18;13.50;99.90
16980;DHT22;42288;52.182;21.156;2023-06-14T01:37:44;13.50;99.90
16980;DHT22;42288;52.182;21.156;2023-06-14T01:40:12;13.50;99.90
16980;DHT22;42288;52.182;21.156;2023-06-14T01:42:38;13.50;99.90
16980;DHT22;42288;52.182;21.156;2023-06-14T01:45:05;13.50;99.90
16980;DHT22;42288;52.182;21.156;2023-06-14T01:47:32;13.50;99.90
16980;DHT22;42288;52.182;21.156;2023-06-14T01:49:58;13.50;99.90
16980;DHT22;42288;52.182;21.156;2023-06-14T01:52:24;13.50;99.90
16980;DHT22;42288;52.182;21.156;2023-06-14T01:54:50;13.50;99.90
16980;DHT22;42288;52.182;21.156;2023-06-14T01:57:16;13.50;99.90
16980;DHT22;42288;52.182;21.156;2023-06-14T01:59:41;13.50;99.90
16980;DHT22;42288;52.182;21.156;2023-06-14T02:02:07;13.50;99.90
16980;DHT22;42288;52.182;21.156;2023-06-14T02:04:33;13.50;99.90
16980;DHT22;42288;52.182;21.156;2023-06-14T02:06:58;13.60;99.90
16980;DHT22;42288;52.182;21.156;2023-06-14T02:09:24;13.70;99.90
16980;DHT22;42288;52.182;21.156;2023-06-14T02:11:50;13.60;99.90
16980;DHT22;42288;52.182;21.156;2023-06-14T02:14:16;13.50;99.90
16980;DHT22;42288;52.182;21.156;2023-06-14T02:16:43;13.50;99.90
16980;DHT22;42288;52.182;21.156;2023-06-14T02:19:15;13.50;99.90
16980;DHT22;42288;52.182;21.156;2023-06-14T02:21:41;13.50;99.90
16980;DHT22;42288;52.182;21.156;2023-06-14T02:24:07;13.60;99.90
16980;DHT22;42288;52.182;21.156;2023-06-14T02:26:32;13.60;99.90
16980;DHT22;42288;52.182;21.156;2023-06-14T02:28:58;13.60;99.90
16980;DHT22;42288;52.182;21.156;2023-06-14T02:31:23;13.70;99.90
16980;DHT22;42288;52.182;21.156;2023-06-14T02:33:49;13.70;99.90
16980;DHT22;42288;52.182;21.156;2023-06-14T02:36:15;13.70;99.90
16980;DHT22;42288;52.182;21.156;2023-06-14T02:38:40;13.60;99.90
16980;DHT22;42288;52.182;21.156;2023-06-14T02:41:06;13.70;99.90
16980;DHT22;42288;52.182;21.156;2023-06-14T02:43:32;13.60;99.90
16980;DHT22;42288;52.182;21.156;2023-06-14T02:45:57;13.60;99.90
16980;DHT22;42288;52.182;21.156;2023-06-14T02:48:23;13.60;99.90
16980;DHT22;42288;52.182;21.156;2023-06-14T02:50:49;13.60;99.90
16980;DHT22;42288;52.182;21.156;2023-06-14T02:53:15;13.70;99.90
16980;DHT22;42288;52.182;21.156;2023-06-14T02:55:41;13.70;99.90
16980;DHT22;42288;52.182;21.156;2023-06-14T02:58:07;13.80;99.90
16980;DHT22;42288;52.182;21.156;2023-06-14T03:00:32;13.70;99.90
16980;DHT22;42288;52.182;21.156;2023-06-14T03:02:58;13.70;99.90
16980;DHT22;42288;52.182;21.156;2023-06-14T03:05:27;13.70;99.90
16980;DHT22;42288;52.182;21.156;2023-06-14T03:07:53;13.60;99.90
16980;DHT22;42288;52.182;21.156;2023-06-14T03:10:19;13.70;99.90
16980;DHT22;42288;52.182;21.156;2023-06-14T03:12:45;13.60;99.90
16980;DHT22;42288;52.182;21.156;2023-06-14T03:15:10;13.60;99.90
16980;DHT22;42288;52.182;21.156;2023-06-14T03:17:38;13.60;99.90
16980;DHT22;42288;52.182;21.156;2023-06-14T03:20:04;13.50;99.90
16980;DHT22;42288;52.182;21.156;2023-06-14T03:22:31;13.50;99.90
16980;DHT22;42288;52.182;21.156;2023-06-14T03:24:58;13.50;99.90
16980;DHT22;42288;52.182;21.156;2023-06-14T03:27:24;13.50;99.90
16980;DHT22;42288;52.182;21.156;2023-06-14T03:29:51;13.60;99.90
16980;DHT22;42288;52.182;21.156;2023-06-14T03:32:16;13.60;99.90
16980;DHT22;42288;52.182;21.156;2023-06-14T03:34:42;13.60;99.90
16980;DHT22;42288;52.182;21.156;2023-06-14T03:37:08;13.60;99.90
16980;DHT22;42288;52.182;21.156;2023-06-14T03:39:33;13.50;99.90
16980;DHT22;42288;52.182;21.156;2023-06-14T03:41:59;13.60;99.90
16980;DHT22;42288;52.182;21.156;2023-06-14T03:44:26;13.60;99.90
16980;DHT22;42288;52.182;21.156;2023-06-14T03:46:52;13.70;99.90
16980;DHT22;42288;52.182;21.156;2023-06-14T03:49:18;13.70;99.90
16980;DHT22;42288;52.182;21.156;2023-06-14T03:51:44;13.70;99.90
16980;DHT22;42288;52.182;21.156;2023-06-14T03:54:10;13.80;99.90
16980;DHT22;42288;52.182;21.156;2023-06-14T03:56:35;13.90;99.90
16980;DHT22;42288;52.182;21.156;2023-06-14T03:59:01;13.90;99.90
16980;DHT22;42288;52.182;21.156;2023-06-14T04:01:28;13.90;99.90
16980;DHT22;42288;52.182;21.156;2023-06-14T04:03:58;14.00;99.90
16980;DHT22;42288;52.182;21.156;2023-06-14T04:06:23;14.00;99.90
16980;DHT22;42288;52.182;21.156;2023-06-14T04:08:51;14.10;99.90
16980;DHT22;42288;52.182;21.156;2023-06-14T04:11:17;14.10;99.90
16980;DHT22;42288;52.182;21.156;2023-06-14T04:13:43;14.10;99.90
16980;DHT22;42288;52.182;21.156;2023-06-14T04:16:09;14.20;99.90
16980;DHT22;42288;52.182;21.156;2023-06-14T04:18:34;14.20;99.90
16980;DHT22;42288;52.182;21.156;2023-06-14T04:21:00;14.30;99.90
16980;DHT22;42288;52.182;21.156;2023-06-14T04:23:26;14.30;99.90
16980;DHT22;42288;52.182;21.156;2023-06-14T04:25:53;14.40;99.90
16980;DHT22;42288;52.182;21.156;2023-06-14T04:28:19;14.40;99.90
16980;DHT22;42288;52.182;21.156;2023-06-14T04:30:45;14.40;99.90
16980;DHT22;42288;52.182;21.156;2023-06-14T04:33:12;14.40;99.90
16980;DHT22;42288;52.182;21.156;2023-06-14T04:35:39;14.50;99.90
16980;DHT22;42288;52.182;21.156;2023-06-14T04:38:06;14.50;99.90
16980;DHT22;42288;52.182;21.156;2023-06-14T04:40:35;14.50;99.90
16980;DHT22;42288;52.182;21.156;2023-06-14T04:43:02;14.50;99.90
16980;DHT22;42288;52.182;21.156;2023-06-14T04:45:32;14.60;99.90
16980;DHT22;42288;52.182;21.156;2023-06-14T04:47:59;14.60;99.90
16980;DHT22;42288;52.182;21.156;2023-06-14T04:50:25;14.50;99.90
16980;DHT22;42288;52.182;21.156;2023-06-14T04:52:50;14.60;99.90
16980;DHT22;42288;52.182;21.156;2023-06-14T04:55:17;14.60;99.90
16980;DHT22;42288;52.182;21.156;2023-06-14T04:57:44;14.70;99.90
16980;DHT22;42288;52.182;21.156;2023-06-14T05:00:10;14.70;99.90
16980;DHT22;42288;52.182;21.156;2023-06-14T05:02:37;14.70;99.90
16980;DHT22;42288;52.182;21.156;2023-06-14T05:05:03;14.70;99.90
16980;DHT22;42288;52.182;21.156;2023-06-14T05:07:32;14.70;99.90
16980;DHT22;42288;52.182;21.156;2023-06-14T05:09:59;14.80;99.90
16980;DHT22;42288;52.182;21.156;2023-06-14T05:12:25;14.70;99.90
16980;DHT22;42288;52.182;21.156;2023-06-14T05:14:50;14.80;99.90
16980;DHT22;42288;52.182;21.156;2023-06-14T05:17:16;14.90;99.90
16980;DHT22;42288;52.182;21.156;2023-06-14T05:19:42;14.90;99.90
16980;DHT22;42288;52.182;21.156;2023-06-14T05:22:08;15.00;99.90
16980;DHT22;42288;52.182;21.156;2023-06-14T05:24:34;15.10;99.90
16980;DHT22;42288;52.182;21.156;2023-06-14T05:27:00;15.10;99.90
16980;DHT22;42288;52.182;21.156;2023-06-14T05:29:26;15.00;99.90
16980;DHT22;42288;52.182;21.156;2023-06-14T05:31:52;15.00;99.90
16980;DHT22;42288;52.182;21.156;2023-06-14T05:34:18;15.10;99.90
16980;DHT22;42288;52.182;21.156;2023-06-14T05:36:44;15.10;99.90
16980;DHT22;42288;52.182;21.156;2023-06-14T05:39:10;15.00;99.90
16980;DHT22;42288;52.182;21.156;2023-06-14T05:41:35;15.10;99.90
16980;DHT22;42288;52.182;21.156;2023-06-14T05:44:01;15.10;99.90
16980;DHT22;42288;52.182;21.156;2023-06-14T05:46:28;15.20;99.90
16980;DHT22;42288;52.182;21.156;2023-06-14T05:48:55;15.10;99.90
16980;DHT22;42288;52.182;21.156;2023-06-14T05:51:21;15.10;99.90
16980;DHT22;42288;52.182;21.156;2023-06-14T05:53:49;15.20;99.90
16980;DHT22;42288;52.182;21.156;2023-06-14T05:56:16;15.20;99.90
16980;DHT22;42288;52.182;21.156;2023-06-14T05:58:43;15.30;99.90
16980;DHT22;42288;52.182;21.156;2023-06-14T06:01:09;15.40;99.90
16980;DHT22;42288;52.182;21.156;2023-06-14T06:03:34;15.50;99.90
16980;DHT22;42288;52.182;21.156;2023-06-14T06:06:00;15.40;99.90
16980;DHT22;42288;52.182;21.156;2023-06-14T06:08:26;15.40;99.90
16980;DHT22;42288;52.182;21.156;2023-06-14T06:10:52;15.60;99.90
16980;DHT22;42288;52.182;21.156;2023-06-14T06:13:18;15.70;99.90
16980;DHT22;42288;52.182;21.156;2023-06-14T06:15:44;15.60;99.90
16980;DHT22;42288;52.182;21.156;2023-06-14T06:18:09;15.70;99.90
16980;DHT22;42288;52.182;21.156;2023-06-14T06:20:35;15.70;99.90
16980;DHT22;42288;52.182;21.156;2023-06-14T06:23:02;15.80;99.90
16980;DHT22;42288;52.182;21.156;2023-06-14T06:25:28;15.70;99.90
16980;DHT22;42288;52.182;21.156;2023-06-14T06:27:54;15.70;99.90
16980;DHT22;42288;52.182;21.156;2023-06-14T06:30:22;15.70;99.90
16980;DHT22;42288;52.182;21.156;2023-06-14T06:32:47;15.80;99.90
16980;DHT22;42288;52.182;21.156;2023-06-14T06:35:13;15.90;99.90
16980;DHT22;42288;52.182;21.156;2023-06-14T06:37:40;15.90;99.90
16980;DHT22;42288;52.182;21.156;2023-06-14T06:40:06;16.00;99.90
16980;DHT22;42288;52.182;21.156;2023-06-14T06:42:32;16.10;99.90
16980;DHT22;42288;52.182;21.156;2023-06-14T06:44:58;16.10;99.90
16980;DHT22;42288;52.182;21.156;2023-06-14T06:47:24;16.00;99.90
16980;DHT22;42288;52.182;21.156;2023-06-14T06:49:50;15.90;99.90
16980;DHT22;42288;52.182;21.156;2023-06-14T06:52:16;16.10;99.90
16980;DHT22;42288;52.182;21.156;2023-06-14T06:54:41;16.20;99.90
16980;DHT22;42288;52.182;21.156;2023-06-14T06:57:07;16.40;99.90
16980;DHT22;42288;52.182;21.156;2023-06-14T06:59:33;16.40;99.90
16980;DHT22;42288;52.182;21.156;2023-06-14T07:01:59;16.50;99.90
16980;DHT22;42288;52.182;21.156;2023-06-14T07:04:24;16.60;99.90
16980;DHT22;42288;52.182;21.156;2023-06-14T07:06:50;16.60;99.90
16980;DHT22;42288;52.182;21.156;2023-06-14T07:09:16;16.50;99.90
16980;DHT22;42288;52.182;21.156;2023-06-14T07:11:43;16.40;99.90
16980;DHT22;42288;52.182;21.156;2023-06-14T07:14:09;16.50;99.90
16980;DHT22;42288;52.182;21.156;2023-06-14T07:16:35;16.50;99.90
16980;DHT22;42288;52.182;21.156;2023-06-14T07:19:04;16.50;99.90
16980;DHT22;42288;52.182;21.156;2023-06-14T07:21:30;16.50;99.90
16980;DHT22;42288;52.182;21.156;2023-06-14T07:23:56;16.60;99.90
16980;DHT22;42288;52.182;21.156;2023-06-14T07:26:22;16.70;99.90
16980;DHT22;42288;52.182;21.156;2023-06-14T07:28:48;16.80;99.90
16980;DHT22;42288;52.182;21.156;2023-06-14T07:31:15;16.90;99.90
16980;DHT22;42288;52.182;21.156;2023-06-14T07:33:41;17.00;99.90
16980;DHT22;42288;52.182;21.156;2023-06-14T07:36:07;17.10;99.90
16980;DHT22;42288;52.182;21.156;2023-06-14T07:38:33;17.10;99.90
16980;DHT22;42288;52.182;21.156;2023-06-14T07:41:00;17.30;99.90
16980;DHT22;42288;52.182;21.156;2023-06-14T07:43:25;17.30;99.90
16980;DHT22;42288;52.182;21.156;2023-06-14T07:45:51;17.50;99.90
16980;DHT22;42288;52.182;21.156;2023-06-14T07:48:16;17.60;99.90
16980;DHT22;42288;52.182;21.156;2023-06-14T07:50:42;17.70;99.90
16980;DHT22;42288;52.182;21.156;2023-06-14T07:53:08;17.70;99.90
16980;DHT22;42288;52.182;21.156;2023-06-14T07:55:34;17.50;99.90
16980;DHT22;42288;52.182;21.156;2023-06-14T07:58:03;17.40;99.90
16980;DHT22;42288;52.182;21.156;2023-06-14T08:00:28;17.40;99.90
16980;DHT22;42288;52.182;21.156;2023-06-14T08:02:54;17.50;99.90
16980;DHT22;42288;52.182;21.156;2023-06-14T08:05:24;17.70;99.90
16980;DHT22;42288;52.182;21.156;2023-06-14T08:07:51;17.70;99.90
16980;DHT22;42288;52.182;21.156;2023-06-14T08:10:17;17.80;99.90
16980;DHT22;42288;52.182;21.156;2023-06-14T08:12:43;17.80;99.90
16980;DHT22;42288;52.182;21.156;2023-06-14T08:15:09;17.80;99.90
16980;DHT22;42288;52.182;21.156;2023-06-14T08:17:34;17.80;99.90
16980;DHT22;42288;52.182;21.156;2023-06-14T08:20:00;17.80;99.90
16980;DHT22;42288;52.182;21.156;2023-06-14T08:22:26;17.80;99.90
16980;DHT22;42288;52.182;21.156;2023-06-14T08:24:53;17.90;99.90
16980;DHT22;42288;52.182;21.156;2023-06-14T08:27:19;18.00;99.90
16980;DHT22;42288;52.182;21.156;2023-06-14T08:29:45;18.20;99.90
16980;DHT22;42288;52.182;21.156;2023-06-14T08:32:12;18.30;99.90
16980;DHT22;42288;52.182;21.156;2023-06-14T08:34:37;18.30;99.90
16980;DHT22;42288;52.182;21.156;2023-06-14T08:37:03;18.40;99.90
16980;DHT22;42288;52.182;21.156;2023-06-14T08:39:29;18.40;99.90
16980;DHT22;42288;52.182;21.156;2023-06-14T08:41:56;18.30;99.90
16980;DHT22;42288;52.182;21.156;2023-06-14T08:44:22;18.50;99.90
16980;DHT22;42288;52.182;21.156;2023-06-14T08:46:48;18.40;99.90
16980;DHT22;42288;52.182;21.156;2023-06-14T08:49:16;18.40;99.90
16980;DHT22;42288;52.182;21.156;2023-06-14T08:51:43;18.50;99.90
16980;DHT22;42288;52.182;21.156;2023-06-14T08:54:11;18.70;99.90
16980;DHT22;42288;52.182;21.156;2023-06-14T08:56:38;18.90;99.90
16980;DHT22;42288;52.182;21.156;2023-06-14T08:59:07;18.90;99.90
16980;DHT22;42288;52.182;21.156;2023-06-14T09:01:34;19.00;99.90
16980;DHT22;42288;52.182;21.156;2023-06-14T09:04:00;19.00;99.90
16980;DHT22;42288;52.182;21.156;2023-06-14T09:06:27;19.10;99.90
16980;DHT22;42288;52.182;21.156;2023-06-14T09:08:55;19.20;99.90
16980;DHT22;42288;52.182;21.156;2023-06-14T09:11:23;19.40;99.90
16980;DHT22;42288;52.182;21.156;2023-06-14T09:13:49;19.60;99.90
16980;DHT22;42288;52.182;21.156;2023-06-14T09:16:16;19.70;99.90
16980;DHT22;42288;52.182;21.156;2023-06-14T09:18:44;19.80;99.90
16980;DHT22;42288;52.182;21.156;2023-06-14T09:21:10;19.50;99.90
16980;DHT22;42288;52.182;21.156;2023-06-14T09:23:41;19.50;99.90
16980;DHT22;42288;52.182;21.156;2023-06-14T09:26:12;19.50;99.90
16980;DHT22;42288;52.182;21.156;2023-06-14T09:28:48;19.40;99.90
16980;DHT22;42288;52.182;21.156;2023-06-14T09:31:15;19.60;99.90
16980;DHT22;42288;52.182;21.156;2023-06-14T09:33:45;19.80;99.90
16980;DHT22;42288;52.182;21.156;2023-06-14T09:36:20;20.00;99.90
16980;DHT22;42288;52.182;21.156;2023-06-14T09:38:57;20.00;99.90
16980;DHT22;42288;52.182;21.156;2023-06-14T09:41:33;19.80;99.90
16980;DHT22;42288;52.182;21.156;2023-06-14T09:44:05;19.70;99.90
16980;DHT22;42288;52.182;21.156;2023-06-14T09:46:31;19.80;99.90
16980;DHT22;42288;52.182;21.156;2023-06-14T09:48:57;19.80;99.90
16980;DHT22;42288;52.182;21.156;2023-06-14T09:51:25;19.80;99.90
16980;DHT22;42288;52.182;21.156;2023-06-14T09:53:52;19.70;99.90
16980;DHT22;42288;52.182;21.156;2023-06-14T09:56:28;19.80;99.90
16980;DHT22;42288;52.182;21.156;2023-06-14T09:58:56;19.70;99.90
16980;DHT22;42288;52.182;21.156;2023-06-14T10:01:26;19.90;99.90
16980;DHT22;42288;52.182;21.156;2023-06-14T10:04:04;20.10;99.90
16980;DHT22;42288;52.182;21.156;2023-06-14T10:06:31;20.40;99.90
16980;DHT22;42288;52.182;21.156;2023-06-14T10:08:59;20.60;99.90
16980;DHT22;42288;52.182;21.156;2023-06-14T10:11:28;20.80;99.90
16980;DHT22;42288;52.182;21.156;2023-06-14T10:13:55;20.90;99.90
16980;DHT22;42288;52.182;21.156;2023-06-14T10:16:30;21.10;99.90
16980;DHT22;42288;52.182;21.156;2023-06-14T10:25:01;21.10;99.90
16980;DHT22;42288;52.182;21.156;2023-06-14T10:27:27;20.80;99.90
16980;DHT22;42288;52.182;21.156;2023-06-14T10:32:20;20.80;99.90
16980;DHT22;42288;52.182;21.156;2023-06-14T10:34:49;20.90;99.90
16980;DHT22;42288;52.182;21.156;2023-06-14T10:37:18;20.90;99.90
16980;DHT22;42288;52.182;21.156;2023-06-14T10:39:45;20.70;99.90
16980;DHT22;42288;52.182;21.156;2023-06-14T10:42:14;20.60;99.90
16980;DHT22;42288;52.182;21.156;2023-06-14T10:45:06;20.50;99.90
16980;DHT22;42288;52.182;21.156;2023-06-14T10:47:33;20.30;99.90
16980;DHT22;42288;52.182;21.156;2023-06-14T10:50:09;20.30;99.90
16980;DHT22;42288;52.182;21.156;2023-06-14T10:52:40;20.30;99.90
16980;DHT22;42288;52.182;21.156;2023-06-14T10:55:17;20.20;99.90
16980;DHT22;42288;52.182;21.156;2023-06-14T10:57:49;20.00;99.90
16980;DHT22;42288;52.182;21.156;2023-06-14T11:00:25;19.80;99.90
16980;DHT22;42288;52.182;21.156;2023-06-14T11:05:53;19.70;99.90
16980;DHT22;42288;52.182;21.156;2023-06-14T11:11:07;19.80;99.90
16980;DHT22;42288;52.182;21.156;2023-06-14T11:13:33;20.00;99.90
16980;DHT22;42288;52.182;21.156;2023-06-14T11:16:00;20.10;99.90
16980;DHT22;42288;52.182;21.156;2023-06-14T11:18:25;20.30;99.90
16980;DHT22;42288;52.182;21.156;2023-06-14T11:20:53;20.80;99.90
16980;DHT22;42288;52.182;21.156;2023-06-14T11:23:18;20.90;99.90
16980;DHT22;42288;52.182;21.156;2023-06-14T11:25:52;20.60;99.90
16980;DHT22;42288;52.182;21.156;2023-06-14T11:28:18;20.50;99.90
16980;DHT22;42288;52.182;21.156;2023-06-14T11:30:45;20.70;97.90
16980;DHT22;42288;52.182;21.156;2023-06-14T11:33:16;20.90;97.80
16980;DHT22;42288;52.182;21.156;2023-06-14T11:35:42;21.10;97.40
16980;DHT22;42288;52.182;21.156;2023-06-14T11:38:10;21.60;97.00
16980;DHT22;42288;52.182;21.156;2023-06-14T11:40:38;22.10;96.10
16980;DHT22;42288;52.182;21.156;2023-06-14T11:43:03;22.20;95.40
16980;DHT22;42288;52.182;21.156;2023-06-14T11:45:30;22.50;93.70
16980;DHT22;42288;52.182;21.156;2023-06-14T11:47:57;23.00;93.90
16980;DHT22;42288;52.182;21.156;2023-06-14T11:50:24;22.70;93.10
16980;DHT22;42288;52.182;21.156;2023-06-14T11:52:57;22.70;93.30
16980;DHT22;42288;52.182;21.156;2023-06-14T11:55:23;22.90;92.60
16980;DHT22;42288;52.182;21.156;2023-06-14T11:57:49;23.50;91.90
16980;DHT22;42288;52.182;21.156;2023-06-14T12:00:16;23.30;91.40
16980;DHT22;42288;52.182;21.156;2023-06-14T12:02:43;23.00;90.90
16980;DHT22;42288;52.182;21.156;2023-06-14T12:05:20;22.80;91.30
16980;DHT22;42288;52.182;21.156;2023-06-14T12:07:46;22.80;89.20
16980;DHT22;42288;52.182;21.156;2023-06-14T12:10:14;22.70;89.60
16980;DHT22;42288;52.182;21.156;2023-06-14T12:12:40;22.80;89.20
16980;DHT22;42288;52.182;21.156;2023-06-14T12:15:08;22.60;87.40
16980;DHT22;42288;52.182;21.156;2023-06-14T12:17:35;23.00;84.90
16980;DHT22;42288;52.182;21.156;2023-06-14T12:20:12;23.10;85.60
16980;DHT22;42288;52.182;21.156;2023-06-14T12:22:57;22.80;83.60
16980;DHT22;42288;52.182;21.156;2023-06-14T12:25:27;22.20;83.60
16980;DHT22;42288;52.182;21.156;2023-06-14T12:28:08;22.30;86.50
16980;DHT22;42288;52.182;21.156;2023-06-14T12:30:35;22.70;87.10
16980;DHT22;42288;52.182;21.156;2023-06-14T12:33:02;22.40;84.40
16980;DHT22;42288;52.182;21.156;2023-06-14T12:35:28;22.90;87.40
16980;DHT22;42288;52.182;21.156;2023-06-14T12:37:54;23.00;86.20
16980;DHT22;42288;52.182;21.156;2023-06-14T12:40:19;22.60;82.40
16980;DHT22;42288;52.182;21.156;2023-06-14T12:42:45;22.60;83.00
16980;DHT22;42288;52.182;21.156;2023-06-14T12:45:13;22.70;82.80
16980;DHT22;42288;52.182;21.156;2023-06-14T12:47:39;22.80;83.30
16980;DHT22;42288;52.182;21.156;2023-06-14T12:50:05;22.50;83.90
16980;DHT22;42288;52.182;21.156;2023-06-14T12:52:31;22.50;85.30
16980;DHT22;42288;52.182;21.156;2023-06-14T12:54:57;22.50;85.10
16980;DHT22;42288;52.182;21.156;2023-06-14T12:57:23;22.50;81.70
16980;DHT22;42288;52.182;21.156;2023-06-14T12:59:49;22.20;78.70
16980;DHT22;42288;52.182;21.156;2023-06-14T13:02:16;22.30;80.30
16980;DHT22;42288;52.182;21.156;2023-06-14T13:04:43;22.60;79.30
16980;DHT22;42288;52.182;21.156;2023-06-14T13:07:09;22.70;83.00
16980;DHT22;42288;52.182;21.156;2023-06-14T13:09:36;22.90;81.90
16980;DHT22;42288;52.182;21.156;2023-06-14T13:12:02;22.80;80.90
16980;DHT22;42288;52.182;21.156;2023-06-14T13:14:27;22.70;79.50
16980;DHT22;42288;52.182;21.156;2023-06-14T13:16:53;23.10;82.50
16980;DHT22;42288;52.182;21.156;2023-06-14T13:19:18;22.80;79.70
16980;DHT22;42288;52.182;21.156;2023-06-14T13:21:44;22.70;78.40
16980;DHT22;42288;52.182;21.156;2023-06-14T13:24:09;22.70;79.60
16980;DHT22;42288;52.182;21.156;2023-06-14T13:26:35;22.70;81.80
16980;DHT22;42288;52.182;21.156;2023-06-14T13:29:01;23.00;81.10
16980;DHT22;42288;52.182;21.156;2023-06-14T13:31:26;23.00;79.90
16980;DHT22;42288;52.182;21.156;2023-06-14T13:33:52;22.80;79.70
16980;DHT22;42288;52.182;21.156;2023-06-14T13:36:17;23.00;80.10
16980;DHT22;42288;52.182;21.156;2023-06-14T13:38:43;22.70;80.30
16980;DHT22;42288;52.182;21.156;2023-06-14T13:41:09;22.70;79.70
16980;DHT22;42288;52.182;21.156;2023-06-14T13:43:34;22.40;77.70
16980;DHT22;42288;52.182;21.156;2023-06-14T13:46:00;22.40;76.80
16980;DHT22;42288;52.182;21.156;2023-06-14T13:48:26;22.40;76.50
16980;DHT22;42288;52.182;21.156;2023-06-14T13:50:51;22.40;77.30
16980;DHT22;42288;52.182;21.156;2023-06-14T13:53:17;22.40;77.20
16980;DHT22;42288;52.182;21.156;2023-06-14T13:55:43;22.60;79.80
16980;DHT22;42288;52.182;21.156;2023-06-14T13:58:08;22.70;79.50
16980;DHT22;42288;52.182;21.156;2023-06-14T14:00:34;22.80;78.00
16980;DHT22;42288;52.182;21.156;2023-06-14T14:03:02;23.20;77.90
16980;DHT22;42288;52.182;21.156;2023-06-14T14:05:28;23.20;75.50
16980;DHT22;42288;52.182;21.156;2023-06-14T14:07:56;23.40;77.70
16980;DHT22;42288;52.182;21.156;2023-06-14T14:10:23;23.90;74.80
16980;DHT22;42288;52.182;21.156;2023-06-14T14:12:50;24.30;72.80
16980;DHT22;42288;52.182;21.156;2023-06-14T14:15:16;24.20;72.80
16980;DHT22;42288;52.182;21.156;2023-06-14T14:17:42;24.00;71.70
16980;DHT22;42288;52.182;21.156;2023-06-14T14:20:08;24.00;71.60
16980;DHT22;42288;52.182;21.156;2023-06-14T14:22:33;23.70;71.90
16980;DHT22;42288;52.182;21.156;2023-06-14T14:24:59;23.80;74.30
16980;DHT22;42288;52.182;21.156;2023-06-14T14:27:25;23.80;72.80
16980;DHT22;42288;52.182;21.156;2023-06-14T14:29:50;23.70;73.90
16980;DHT22;42288;52.182;21.156;2023-06-14T14:32:16;23.50;72.30
16980;DHT22;42288;52.182;21.156;2023-06-14T14:34:41;23.40;73.20
16980;DHT22;42288;52.182;21.156;2023-06-14T14:37:07;23.10;72.70
16980;DHT22;42288;52.182;21.156;2023-06-14T14:39:33;23.00;73.40
16980;DHT22;42288;52.182;21.156;2023-06-14T14:41:58;23.00;74.50
16980;DHT22;42288;52.182;21.156;2023-06-14T14:44:24;22.80;74.60
16980;DHT22;42288;52.182;21.156;2023-06-14T14:46:49;22.80;73.40
16980;DHT22;42288;52.182;21.156;2023-06-14T14:49:15;22.70;74.30
16980;DHT22;42288;52.182;21.156;2023-06-14T14:51:40;22.40;73.70
16980;DHT22;42288;52.182;21.156;2023-06-14T14:54:06;22.60;73.30
16980;DHT22;42288;52.182;21.156;2023-06-14T14:56:32;22.40;76.10
16980;DHT22;42288;52.182;21.156;2023-06-14T14:58:58;22.40;76.20
16980;DHT22;42288;52.182;21.156;2023-06-14T15:01:23;22.40;75.80
16980;DHT22;42288;52.182;21.156;2023-06-14T15:03:49;22.40;77.40
16980;DHT22;42288;52.182;21.156;2023-06-14T15:06:15;22.20;77.00
16980;DHT22;42288;52.182;21.156;2023-06-14T15:08:40;22.30;78.70
16980;DHT22;42288;52.182;21.156;2023-06-14T15:11:06;22.30;78.40
16980;DHT22;42288;52.182;21.156;2023-06-14T15:13:32;22.00;78.00
16980;DHT22;42288;52.182;21.156;2023-06-14T15:15:57;22.00;79.30
16980;DHT22;42288;52.182;21.156;2023-06-14T15:18:23;22.30;80.60
16980;DHT22;42288;52.182;21.156;2023-06-14T15:20:49;22.40;79.90
16980;DHT22;42288;52.182;21.156;2023-06-14T15:23:15;22.50;80.60
16980;DHT22;42288;52.182;21.156;2023-06-14T15:25:45;22.50;80.80
16980;DHT22;42288;52.182;21.156;2023-06-14T15:28:12;22.40;81.20
16980;DHT22;42288;52.182;21.156;2023-06-14T15:30:38;22.30;80.90
16980;DHT22;42288;52.182;21.156;2023-06-14T15:33:03;22.00;80.30